Time;durP1;ratioP1;P1;durP2;ratioP2;P2;SDS_P1;SDS_P2;PMS_P1;PMS_P2;Temp;Humidity;BMP_temperature;BMP_pressure;BME280_temperature;BME280_humidity;BME280_pressure;Samples;Min_cycle;Max_cycle;Signal;HPM_P1;HPM_P2
2022/02/23 00:01:39;;;;;;;;;17.67;14.67;;;;;3.63;68.38;99817.84;6307813;20;3523200;-47
2022/02/23 00:04:08;;;;;;;;;17.67;16.00;;;;;3.55;68.46;99818.09;6310226;20;3562820;-45
2022/02/23 00:06:36;;;;;;;;;14.67;14.00;;;;;3.20;70.24;99830.63;6312587;20;2814864;-44
2022/02/23 00:09:05;;;;;;;;;20.33;19.00;;;;;3.35;69.89;99828.47;6319089;20;1809815;-44
2022/02/23 00:11:33;;;;;;;;;20.67;16.00;;;;;3.32;70.25;99828.53;6314368;20;3559635;-45
2022/02/23 00:14:03;;;;;;;;;20.40;15.60;;;;;3.08;71.74;99826.56;6334401;20;2802449;-44
2022/02/23 00:16:32;;;;;;;;;17.33;15.67;;;;;3.19;71.21;99828.03;6282788;20;3550635;-45
2022/02/23 00:19:00;;;;;;;;;26.00;21.00;;;;;2.92;71.99;99821.72;6312969;20;3576279;-44
2022/02/23 00:21:28;;;;;;;;;19.50;19.00;;;;;3.27;71.30;99821.59;6276774;20;2834662;-45
2022/02/23 00:23:57;;;;;;;;;20.00;17.33;;;;;3.09;71.78;99814.16;6281718;20;3563770;-45
2022/02/23 00:26:25;;;;;;;;;11.00;11.00;;;;;2.78;73.10;99806.22;6313026;20;2773178;-45
2022/02/23 00:28:53;;;;;;;;;20.33;16.00;;;;;3.02;71.85;99810.81;6283850;20;2828439;-45
2022/02/23 00:31:22;;;;;;;;;19.00;16.50;;;;;2.85;72.26;99800.69;6314379;20;2823232;-44
2022/02/23 00:33:51;;;;;;;;;16.60;15.00;;;;;3.12;71.33;99806.13;6304741;20;2822199;-45
2022/02/23 00:36:19;;;;;;;;;11.50;11.00;;;;;2.89;71.90;99803.25;6281218;20;2786777;-45
2022/02/23 00:38:49;;;;;;;;;13.20;13.20;;;;;3.19;71.41;99802.38;6307674;20;2804657;-45
2022/02/23 00:41:17;;;;;;;;;16.00;11.00;;;;;3.03;71.41;99791.34;6279642;20;2780543;-44
2022/02/23 00:43:47;;;;;;;;;19.60;12.40;;;;;3.08;71.57;99799.16;6306633;20;2810672;-44
2022/02/23 00:46:18;;;;;;;;;15.57;12.71;;;;;3.11;71.40;99787.56;6323195;20;1812860;-46
2022/02/23 00:48:46;;;;;;;;;12.00;12.00;;;;;3.20;71.52;99788.19;6311547;20;2787872;-47
2022/02/23 00:51:17;;;;;;;;;13.71;12.86;;;;;3.12;71.38;99784.88;6321343;20;1812870;-45
2022/02/23 00:53:45;;;;;;;;;15.00;12.00;;;;;3.12;71.38;99779.59;6312801;20;2800333;-46
2022/02/23 00:56:14;;;;;;;;;16.80;11.20;;;;;3.12;71.15;99779.59;6304301;20;2801302;-45
2022/02/23 00:58:42;;;;;;;;;15.00;9.00;;;;;3.22;71.26;99781.06;6281849;20;2761837;-45
2022/02/23 01:01:10;;;;;;;;;17.50;15.00;;;;;3.46;70.39;99773.25;6280056;20;2800824;-48
2022/02/23 01:03:38;;;;;;;;;15.00;12.00;;;;;3.30;71.09;99773.72;6282688;20;2779405;-45
2022/02/23 01:06:06;;;;;;;;;12.50;12.50;;;;;3.19;71.07;99764.38;6282633;20;2776319;-46
2022/02/23 01:08:35;;;;;;;;;17.00;12.00;;;;;3.10;72.38;99761.97;6305726;20;2795076;-47
2022/02/23 01:11:04;;;;;;;;;14.00;12.50;;;;;3.20;72.01;99766.97;6301633;20;1835841;-46
2022/02/23 01:13:36;;;;;;;;;16.29;12.29;;;;;3.49;71.13;99768.72;6348849;20;1812222;-51
2022/02/23 01:16:04;;;;;;;;;13.00;12.00;;;;;3.72;70.44;99775.97;6315131;20;2786722;-47
2022/02/23 01:18:32;;;;;;;;;24.00;15.00;;;;;3.64;71.62;99777.13;6284796;20;2809717;-46
2022/02/23 01:21:00;;;;;;;;;9.00;9.00;;;;;3.63;71.25;99775.38;6284123;20;2733626;-47
2022/02/23 01:23:27;;;;;;;;;15.00;14.00;;;;;3.63;71.27;99778.03;6288000;20;2796649;-45
2022/02/23 01:25:57;;;;;;;;;16.00;13.40;;;;;3.46;72.19;99778.56;6310977;20;2819076;-46
2022/02/23 01:28:26;;;;;;;;;17.33;14.33;;;;;3.54;72.56;99788.94;6286822;20;3526284;-45
2022/02/23 01:30:55;;;;;;;;;19.00;13.00;;;;;3.45;72.67;99787.44;6317722;20;2800271;-46
2022/02/23 01:33:23;;;;;;;;;16.00;12.67;;;;;3.28;73.04;99785.31;6316730;20;3525234;-45
2022/02/23 01:35:52;;;;;;;;;15.50;13.00;;;;;3.57;72.94;99789.72;6315076;20;2815928;-47
2022/02/23 01:38:20;;;;;;;;;23.00;17.50;;;;;3.23;73.10;99788.09;6287952;20;2829475;-45
2022/02/23 01:40:49;;;;;;;;;21.00;17.33;;;;;3.52;73.01;99783.69;6283408;20;3549448;-47
2022/02/23 01:43:17;;;;;;;;;14.50;11.00;;;;;3.32;72.67;99770.16;6317323;20;2787801;-48
2022/02/23 01:45:46;;;;;;;;;17.67;16.00;;;;;3.58;72.38;99785.25;6286179;20;3564814;-45
2022/02/23 01:48:14;;;;;;;;;12.50;12.50;;;;;3.63;72.07;99801.91;6317487;20;2796083;-45
2022/02/23 01:50:43;;;;;;;;;17.67;14.67;;;;;3.67;71.92;99792.94;6284094;20;3549254;-45
2022/02/23 01:53:12;;;;;;;;;22.33;17.00;;;;;3.60;72.11;99792.25;6316461;20;3562831;-44
2022/02/23 01:55:41;;;;;;;;;17.00;17.00;;;;;3.87;71.50;99792.28;6286427;20;3552396;-45
2022/02/23 01:58:09;;;;;;;;;26.00;19.00;;;;;3.73;71.03;99796.28;6321348;20;2841069;-46
2022/02/23 02:00:39;;;;;;;;;19.00;17.00;;;;;3.62;71.69;99786.91;6284708;20;3555575;-48
2022/02/23 02:03:11;;;;;;;;;20.67;19.33;;;;;3.84;71.23;99795.91;6314518;20;3557604;-45
2022/02/23 02:05:40;;;;;;;;;20.33;17.00;;;;;3.78;71.24;99801.44;6314386;20;3557546;-47
2022/02/23 02:08:12;;;;;;;;;21.67;16.67;;;;;3.76;70.91;99794.44;6282207;20;3566905;-46
2022/02/23 02:10:39;;;;;;;;;22.00;17.00;;;;;3.83;71.31;99799.50;6316614;20;2819038;-46
2022/02/23 02:13:08;;;;;;;;;16.00;16.00;;;;;3.71;71.72;99800.78;6283662;20;3561837;-46
2022/02/23 02:15:37;;;;;;;;;27.33;19.00;;;;;3.86;71.39;99798.53;6316156;20;3586694;-47
2022/02/23 02:18:06;;;;;;;;;19.00;17.00;;;;;3.89;70.98;99783.38;6282716;20;3547106;-47
2022/02/23 02:20:34;;;;;;;;;32.50;19.50;;;;;3.66;71.61;99786.78;6315652;20;2858098;-46
2022/02/23 02:23:02;;;;;;;;;23.33;19.67;;;;;3.61;72.27;99796.69;6283047;20;3544002;-48
2022/02/23 02:25:30;;;;;;;;;15.50;12.00;;;;;3.78;71.72;99795.25;6314868;20;2794069;-46
2022/02/23 02:27:59;;;;;;;;;17.67;15.67;;;;;3.94;71.40;99802.69;6283281;20;3557581;-47
2022/02/23 02:30:27;;;;;;;;;19.00;15.00;;;;;3.83;71.56;99799.50;6316165;20;2822554;-44
2022/02/23 02:32:57;;;;;;;;;21.50;15.33;;;;;4.01;70.43;99798.03;6306534;20;2829485;-47
2022/02/23 02:35:25;;;;;;;;;22.00;16.00;;;;;3.94;70.64;99802.69;6318577;20;2823253;-46
2022/02/23 02:37:54;;;;;;;;;21.33;18.00;;;;;3.80;70.99;99799.59;6283390;20;3552726;-45
2022/02/23 02:40:23;;;;;;;;;23.00;19.33;;;;;3.84;70.69;99795.06;6312931;20;3561788;-44
2022/02/23 02:42:50;;;;;;;;;22.50;17.00;;;;;3.81;71.64;99798.69;6314661;20;2836789;-46
2022/02/23 02:45:23;;;;;;;;;21.00;17.00;;;;;3.62;72.19;99798.41;6286901;20;3549262;-49
2022/02/23 02:47:52;;;;;;;;;20.33;16.67;;;;;3.73;72.06;99792.75;6314480;20;3571089;-46
2022/02/23 02:50:22;;;;;;;;;17.00;15.00;;;;;3.97;71.04;99796.41;6313917;20;2798195;-45
2022/02/23 02:52:52;;;;;;;;;21.00;14.40;;;;;3.73;71.84;99804.22;6308531;20;2821189;-45
2022/02/23 02:55:20;;;;;;;;;15.00;12.00;;;;;3.98;71.55;99798.16;6283801;20;2783636;-46
2022/02/23 02:57:49;;;;;;;;;20.33;13.00;;;;;4.14;70.72;99796.72;6284306;20;3529444;-45
2022/02/23 03:00:18;;;;;;;;;24.67;20.67;;;;;4.17;70.99;99798.41;6310909;20;3558572;-47
2022/02/23 03:02:46;;;;;;;;;16.67;14.00;;;;;4.18;70.74;99803.66;6315170;20;2819128;-48
2022/02/23 03:05:15;;;;;;;;;22.00;18.00;;;;;3.99;70.96;99804.31;6312381;20;3563853;-48
2022/02/23 03:07:44;;;;;;;;;21.00;16.00;;;;;4.05;70.85;99802.31;6314531;20;3564851;-49
2022/02/23 03:10:12;;;;;;;;;12.00;12.00;;;;;4.19;70.25;99807.19;6314093;20;2778415;-50
2022/02/23 03:12:41;;;;;;;;;16.00;12.40;;;;;4.13;70.34;99812.69;6311333;20;2800284;-49
2022/02/23 03:15:09;;;;;;;;;21.00;17.00;;;;;4.26;71.13;99814.03;6283829;20;2844153;-45
2022/02/23 03:17:38;;;;;;;;;22.00;18.33;;;;;4.03;71.03;99816.56;6282477;20;3569062;-48
2022/02/23 03:20:09;;;;;;;;;21.00;18.33;;;;;4.18;71.08;99811.63;6313544;20;3557594;-48
2022/02/23 03:22:38;;;;;;;;;20.33;16.67;;;;;3.93;73.70;99805.41;6281056;20;3558561;-46
2022/02/23 03:25:07;;;;;;;;;17.00;15.33;;;;;4.00;71.68;99806.91;6311657;20;3558575;-49
2022/02/23 03:27:36;;;;;;;;;23.00;16.00;;;;;4.17;73.89;99807.25;6314466;20;3558694;-46
2022/02/23 03:30:05;;;;;;;;;21.50;13.00;;;;;4.15;71.57;99802.91;6312899;20;2828371;-45
2022/02/23 03:32:35;;;;;;;;;17.20;15.60;;;;;4.29;71.06;99797.09;6303687;20;2831554;-45
2022/02/23 03:35:06;;;;;;;;;15.80;14.60;;;;;3.95;71.88;99803.56;6305368;20;2793336;-45
2022/02/23 03:37:36;;;;;;;;;24.67;16.67;;;;;4.09;71.93;99801.31;6281677;20;3568970;-47
2022/02/23 03:40:06;;;;;;;;;19.00;17.33;;;;;4.28;71.06;99803.34;6312861;20;3568963;-46
2022/02/23 03:42:38;;;;;;;;;9.60;5.80;;;;;4.13;71.01;99810.94;6338609;20;2762112;-45
2022/02/23 03:45:07;;;;;;;;;16.00;13.33;;;;;4.18;70.96;99810.75;6312891;20;3537842;-49
2022/02/23 03:47:39;;;;;;;;;13.00;13.00;;;;;4.16;70.94;99808.16;6337825;20;2794269;-47
2022/02/23 03:50:09;;;;;;;;;22.67;15.67;;;;;4.47;70.21;99807.09;6283277;20;3579411;-51
2022/02/23 03:52:42;;;;;;;;;17.00;14.80;;;;;4.34;70.14;99805.78;6338184;20;2809658;-47
2022/02/23 03:55:11;;;;;;;;;13.67;13.00;;;;;4.43;69.78;99802.84;6283141;20;2812856;-46
2022/02/23 03:57:42;;;;;;;;;18.67;15.00;;;;;4.49;70.26;99805.25;6313669;20;3542998;-45
2022/02/23 04:00:15;;;;;;;;;12.60;10.00;;;;;4.58;69.75;99807.63;6336044;20;2790310;-45
2022/02/23 04:02:46;;;;;;;;;17.00;13.00;;;;;4.41;70.59;99807.31;6283535;20;2817063;-45
2022/02/23 04:05:15;;;;;;;;;21.33;14.33;;;;;4.42;71.09;99814.38;6308855;20;3558567;-46
2022/02/23 04:07:43;;;;;;;;;15.00;11.00;;;;;4.52;70.37;99817.59;6317337;20;2798198;-47
2022/02/23 04:10:11;;;;;;;;;16.00;12.50;;;;;4.50;70.37;99824.75;6278652;20;2795076;-45
2022/02/23 04:12:41;;;;;;;;;15.40;14.00;;;;;4.36;70.38;99819.91;6308504;20;2800282;-45
2022/02/23 04:15:10;;;;;;;;;16.67;13.33;;;;;4.27;71.19;99814.91;6281183;20;3539797;-46
2022/02/23 04:17:41;;;;;;;;;13.20;13.20;;;;;4.32;71.46;99816.50;6336507;20;2809648;-45
2022/02/23 04:20:10;;;;;;;;;20.00;16.67;;;;;4.24;71.23;99821.19;6282143;20;2837936;-45
2022/02/23 04:22:42;;;;;;;;;21.20;13.40;;;;;4.08;71.85;99820.84;6337219;20;2812281;-48
2022/02/23 04:25:12;;;;;;;;;23.17;17.00;;;;;4.14;72.02;99819.78;6304502;20;2840987;-45
2022/02/23 04:27:41;;;;;;;;;17.00;15.33;;;;;4.41;71.10;99823.28;6312224;20;3549270;-44
2022/02/23 04:30:10;;;;;;;;;13.50;13.00;;;;;4.05;71.83;99818.25;6311642;20;2785808;-47
2022/02/23 04:32:38;;;;;;;;;16.00;13.00;;;;;4.20;71.99;99829.31;6278225;20;2817013;-45
2022/02/23 04:35:08;;;;;;;;;16.67;16.67;;;;;4.10;72.17;99831.41;6311151;20;3549281;-45
2022/02/23 04:37:36;;;;;;;;;21.00;17.00;;;;;4.21;71.94;99837.22;6319752;20;2831484;-48
2022/02/23 04:40:06;;;;;;;;;15.00;15.00;;;;;4.32;71.85;99839.56;6283911;20;2807546;-46
2022/02/23 04:42:35;;;;;;;;;21.00;17.00;;;;;4.27;72.22;99834.38;6316102;20;3560675;-46
2022/02/23 04:45:05;;;;;;;;;12.67;12.67;;;;;4.18;72.80;99843.50;6316572;20;3531532;-46
2022/02/23 04:47:34;;;;;;;;;17.00;15.00;;;;;4.18;72.23;99847.97;6316221;20;2812183;-47
2022/02/23 04:50:05;;;;;;;;;22.00;16.33;;;;;4.15;73.21;99843.63;6311983;20;3563782;-45
2022/02/23 04:52:32;;;;;;;;;15.50;12.00;;;;;4.34;72.40;99849.19;6317888;20;2802366;-44
2022/02/23 04:55:04;;;;;;;;;13.00;12.57;;;;;4.07;73.64;99850.97;6323892;20;1821001;-45
2022/02/23 04:57:34;;;;;;;;;14.00;12.00;;;;;4.14;73.79;99847.19;6338880;20;2798301;-45
2022/02/23 05:00:05;;;;;;;;;21.00;15.67;;;;;4.31;73.03;99843.97;6282294;20;3560708;-45
2022/02/23 05:02:33;;;;;;;;;16.67;14.00;;;;;4.29;73.16;99855.56;6315213;20;3536713;-46
2022/02/23 05:05:02;;;;;;;;;24.33;14.00;;;;;4.27;73.71;99844.16;6313155;20;3576361;-45
2022/02/23 05:07:31;;;;;;;;;21.33;15.67;;;;;4.28;73.59;99844.09;6315310;20;3545150;-46
2022/02/23 05:10:00;;;;;;;;;11.00;11.00;;;;;4.41;72.94;99849.84;6305400;20;2809678;-46
2022/02/23 05:12:27;;;;;;;;;20.50;18.00;;;;;4.54;72.80;99859.16;6284983;20;2844013;-45
2022/02/23 05:14:56;;;;;;;;;18.67;14.67;;;;;4.32;73.50;99851.03;6283728;20;3546277;-45
2022/02/23 05:17:24;;;;;;;;;26.00;17.00;;;;;4.38;74.38;99849.97;6313072;20;2496092;-47
2022/02/23 05:19:53;;;;;;;;;23.33;17.00;;;;;4.39;74.97;99849.91;6281599;20;3554429;-45
2022/02/23 05:22:24;;;;;;;;;20.33;18.33;;;;;4.33;76.38;99851.91;6312002;20;3562872;-47
2022/02/23 05:24:53;;;;;;;;;24.67;20.67;;;;;4.69;75.06;99848.94;6311720;20;3555559;-46
2022/02/23 05:27:22;;;;;;;;;21.33;13.33;;;;;4.02;77.59;99839.63;6314857;20;2806632;-45
2022/02/23 05:29:52;;;;;;;;;19.33;16.33;;;;;4.37;77.23;99832.25;6334434;20;2836756;-45
2022/02/23 05:32:21;;;;;;;;;19.50;13.00;;;;;4.61;77.59;99836.75;6313330;20;2794097;-45
2022/02/23 05:34:51;;;;;;;;;21.33;14.00;;;;;4.44;79.05;99838.25;6306720;20;2827388;-45
2022/02/23 05:37:19;;;;;;;;;16.00;10.00;;;;;4.41;80.12;99833.91;6315962;20;2789868;-46
2022/02/23 05:39:47;;;;;;;;;12.00;10.00;;;;;4.72;79.28;99827.53;6283000;20;2776355;-49
2022/02/23 05:42:14;;;;;;;;;17.00;11.00;;;;;4.82;79.58;99834.28;6285412;20;2797257;-45
2022/02/23 05:44:42;;;;;;;;;14.50;9.00;;;;;4.68;79.97;99836.53;6283415;20;2775384;-45
2022/02/23 05:47:10;;;;;;;;;17.00;12.50;;;;;4.77;80.01;99841.53;6281841;20;2794157;-47
2022/02/23 05:49:40;;;;;;;;;14.60;14.60;;;;;4.88;79.48;99844.69;6308151;20;2806772;-45
2022/02/23 05:52:08;;;;;;;;;19.00;15.00;;;;;4.99;78.79;99847.81;6284745;20;2833698;-45
2022/02/23 05:54:38;;;;;;;;;27.00;17.33;;;;;5.12;77.15;99858.03;6303539;20;3588808;-53
2022/02/23 05:57:07;;;;;;;;;17.00;12.00;;;;;4.97;77.67;99854.97;6280962;20;3549317;-54
2022/02/23 05:59:35;;;;;;;;;18.00;12.50;;;;;4.90;78.02;99866.78;6313429;20;2800342;-56
2022/02/23 06:02:04;;;;;;;;;14.00;10.00;;;;;5.02;78.51;99869.00;6289845;20;2780494;-51
2022/02/23 06:04:36;;;;;;;;;17.20;15.60;;;;;5.03;78.94;99870.75;6312785;20;2827350;-55
2022/02/23 06:07:06;;;;;;;;;15.00;9.00;;;;;4.96;78.97;99873.69;6291660;20;2755535;-54
2022/02/23 06:09:34;;;;;;;;;19.50;12.00;;;;;4.79;79.67;99884.91;6319577;20;2808612;-51
2022/02/23 06:12:04;;;;;;;;;23.00;11.00;;;;;4.83;81.21;99887.41;6291198;20;2815921;-54
2022/02/23 06:14:33;;;;;;;;;19.00;15.33;;;;;5.16;79.36;99886.25;6288539;20;2835778;-54
2022/02/23 06:17:02;;;;;;;;;11.67;11.00;;;;;5.15;79.54;99889.84;6321612;20;2793137;-55
2022/02/23 06:19:30;;;;;;;;;14.00;8.50;;;;;5.49;78.62;99895.66;6319793;20;2771107;-56
2022/02/23 06:21:58;;;;;;;;;13.50;12.50;;;;;5.55;78.16;99905.22;6289585;20;2787748;-55
2022/02/23 06:24:28;;;;;;;;;10.60;9.80;;;;;5.41;78.98;99908.41;6314473;20;2784774;-53
2022/02/23 06:26:57;;;;;;;;;10.25;9.25;;;;;5.31;79.41;99906.13;6305425;20;1811281;-52
2022/02/23 06:29:27;;;;;;;;;10.60;10.40;;;;;5.32;79.60;99919.41;6343883;20;2777760;-54
2022/02/23 06:32:07;;;;;;;;;14.00;9.00;;;;;5.48;79.27;99912.56;6288571;20;2758571;-53
2022/02/23 06:34:37;;;;;;;;;14.00;12.00;;;;;5.55;79.07;99915.00;6289019;20;2800385;-55
2022/02/23 06:37:07;;;;;;;;;16.00;14.00;;;;;5.37;80.32;99920.09;6316828;20;2791918;-54
2022/02/23 06:39:42;;;;;;;;;17.40;14.40;;;;;5.44;80.74;99913.59;6340947;20;2815874;-54
2022/02/23 06:42:12;;;;;;;;;17.50;13.50;;;;;5.06;82.05;99913.22;6285366;20;2798156;-51
2022/02/23 06:44:40;;;;;;;;;11.00;11.00;;;;;5.31;82.68;99917.66;6286146;20;2795077;-55
2022/02/23 06:47:08;;;;;;;;;14.50;9.50;;;;;5.43;82.12;99911.88;6285940;20;2779554;-56
2022/02/23 06:49:40;;;;;;;;;18.40;11.40;;;;;5.32;82.52;99914.06;6311041;20;2806505;-55
2022/02/23 06:52:11;;;;;;;;;13.00;10.00;;;;;5.55;82.50;99907.88;6289940;20;2785657;-54
2022/02/23 06:54:39;;;;;;;;;11.00;10.50;;;;;5.65;81.99;99921.72;6286325;20;2779552;-55
2022/02/23 06:57:09;;;;;;;;;17.60;12.80;;;;;5.48;82.90;99917.91;6312834;20;2803380;-54
2022/02/23 06:59:40;;;;;;;;;11.50;8.75;;;;;5.66;82.29;99916.34;6304914;20;1824345;-51
2022/02/23 07:02:09;;;;;;;;;10.00;10.00;;;;;5.57;82.74;99914.03;6319042;20;2777457;-55
2022/02/23 07:04:41;;;;;;;;;13.00;11.40;;;;;5.23;84.02;99904.59;6312148;20;2787881;-53
2022/02/23 07:07:11;;;;;;;;;13.20;10.60;;;;;5.38;83.27;99915.66;6312707;20;2782600;-56
2022/02/23 07:09:42;;;;;;;;;14.57;11.29;;;;;5.45;83.52;99918.03;6325409;20;1819077;-55
2022/02/23 07:12:14;;;;;;;;;21.33;13.67;;;;;5.45;83.03;99915.38;6318448;20;2814040;-54
2022/02/23 07:14:42;;;;;;;;;19.67;11.00;;;;;5.63;82.71;99923.56;6315603;20;2807620;-51
2022/02/23 07:17:11;;;;;;;;;17.50;12.00;;;;;5.84;82.53;99917.44;6318695;20;2798258;-55
2022/02/23 07:19:39;;;;;;;;;17.50;11.50;;;;;5.58;82.67;99920.22;6286971;20;2798194;-56
2022/02/23 07:22:07;;;;;;;;;18.67;15.67;;;;;5.93;82.49;99913.56;6288102;20;3559602;-55
2022/02/23 07:24:37;;;;;;;;;14.50;13.00;;;;;6.12;81.80;99925.25;6317656;20;2789844;-54
2022/02/23 07:27:12;;;;;;;;;15.29;11.29;;;;;6.09;81.01;99922.72;6328720;20;1819118;-55
2022/02/23 07:29:45;;;;;;;;;11.00;10.00;;;;;6.18;80.00;99926.81;6317330;20;2780549;-55
2022/02/23 07:32:14;;;;;;;;;14.00;11.00;;;;;5.90;78.76;99921.69;6286718;20;2795029;-52
2022/02/23 07:34:42;;;;;;;;;15.50;11.50;;;;;6.15;77.83;99918.94;6286078;20;2794130;-54
2022/02/23 07:37:10;;;;;;;;;13.50;10.50;;;;;6.04;78.10;99918.50;6286715;20;2792003;-53
2022/02/23 07:39:40;;;;;;;;;12.50;9.00;;;;;5.79;78.60;99908.75;6288220;20;2759638;-52
2022/02/23 07:42:10;;;;;;;;;11.40;10.40;;;;;5.86;78.27;99915.56;6311447;20;2780529;-55
2022/02/23 07:44:58;;;;;;;;;11.00;11.00;;;;;6.23;77.24;99919.50;6285965;20;2789811;-55
2022/02/23 07:47:26;;;;;;;;;14.50;11.00;;;;;6.05;77.65;99928.22;6288269;20;2775334;-55
2022/02/23 07:49:56;;;;;;;;;11.60;11.00;;;;;6.03;77.05;99938.06;6309711;20;2798203;-54
2022/02/23 07:52:29;;;;;;;;;18.80;12.60;;;;;6.20;76.37;99938.28;6312020;20;2806624;-53
2022/02/23 07:54:58;;;;;;;;;14.00;11.67;;;;;6.10;76.68;99934.25;6287106;20;2794042;-55
2022/02/23 07:57:25;;;;;;;;;14.50;12.50;;;;;6.04;77.33;99937.16;6317996;20;2800242;-52
2022/02/23 07:59:54;;;;;;;;;16.00;12.33;;;;;5.86;77.87;99934.22;6285606;20;3554491;-54
2022/02/23 08:02:29;;;;;;;;;13.40;9.60;;;;;6.11;77.57;99939.53;6342597;20;2778469;-56
2022/02/23 08:05:00;;;;;;;;;12.00;10.80;;;;;5.90;79.78;99930.53;6307419;20;2796073;-53
2022/02/23 08:07:28;;;;;;;;;6.00;5.00;;;;;5.67;82.17;99935.88;6290594;20;2750301;-53
2022/02/23 08:09:56;;;;;;;;;16.00;13.00;;;;;5.81;82.37;99944.19;6284868;20;2793116;-55
2022/02/23 08:12:26;;;;;;;;;11.00;6.75;;;;;5.96;82.81;99936.59;6304787;20;1809633;-53
2022/02/23 08:14:56;;;;;;;;;20.00;13.40;;;;;5.91;82.11;99940.25;6341120;20;2805471;-53
2022/02/23 08:20:30;;;;;;;;;16.00;12.00;;;;;6.25;82.42;99944.31;6284977;20;2821167;-48
2022/02/23 08:22:58;;;;;;;;;12.00;11.00;;;;;6.31;81.07;99944.06;6288093;20;2662755;-46
2022/02/23 08:25:26;;;;;;;;;10.00;10.00;;;;;6.08;80.69;99942.31;6285422;20;2777566;-47
2022/02/23 08:27:56;;;;;;;;;12.00;11.00;;;;;6.48;79.82;99955.88;6285424;20;2777494;-44
2022/02/23 08:30:24;;;;;;;;;13.00;11.00;;;;;6.36;79.52;99949.22;6283140;20;2792000;-47
2022/02/23 08:32:55;;;;;;;;;16.50;11.00;;;;;6.53;78.88;99953.84;6286762;20;2789860;-46
2022/02/23 08:35:43;;;;;;;;;10.00;10.00;;;;;6.54;78.19;99960.94;6284738;20;2762785;-45
2022/02/23 08:38:14;;;;;;;;;10.20;10.20;;;;;6.74;76.74;99971.66;6310778;20;2785676;-47
2022/02/23 08:40:44;;;;;;;;;14.50;11.50;;;;;6.61;76.66;99973.09;6284855;20;2787790;-47
2022/02/23 08:43:14;;;;;;;;;16.00;10.00;;;;;6.76;75.56;99975.13;6289455;20;2778406;-50
2022/02/23 08:45:42;;;;;;;;;9.00;8.00;;;;;6.85;75.41;99978.38;6282823;20;2730488;-48
2022/02/23 08:48:11;;;;;;;;;10.00;8.00;;;;;6.74;75.71;99971.66;6288682;20;2764243;-46
2022/02/23 08:50:39;;;;;;;;;8.00;8.00;;;;;6.85;75.62;99976.56;6286648;20;2736063;-48
2022/02/23 08:53:07;;;;;;;;;8.00;8.00;;;;;6.69;75.97;99980.78;6319542;20;2745076;-48
2022/02/23 08:55:36;;;;;;;;;10.00;8.50;;;;;7.02;75.38;99984.72;6316820;20;2750250;-51
2022/02/23 08:58:04;;;;;;;;;10.50;8.50;;;;;7.00;74.62;99991.03;6288500;20;2752359;-47
2022/02/23 09:00:32;;;;;;;;;8.00;8.00;;;;;7.54;74.15;99991.44;6317711;20;2739963;-46
2022/02/23 09:03:02;;;;;;;;;7.75;7.75;;;;;7.71;73.37;99991.53;6336717;20;1811845;-46
2022/02/23 09:05:30;;;;;;;;;11.00;11.00;;;;;7.46;75.17;99997.09;6314173;20;2782657;-45
2022/02/23 09:08:01;;;;;;;;;10.00;10.00;;;;;7.31;76.98;99995.09;6285320;20;2760665;-46
2022/02/23 09:10:30;;;;;;;;;19.00;14.00;;;;;7.31;77.30;99977.25;6306298;20;2809614;-45
2022/02/23 09:13:00;;;;;;;;;15.00;13.80;;;;;7.04;78.96;99990.00;6308995;20;2805659;-45
2022/02/23 09:15:28;;;;;;;;;15.50;14.00;;;;;6.90;77.43;99995.03;6282929;20;2800278;-45
2022/02/23 09:17:58;;;;;;;;;13.80;11.80;;;;;7.35;78.01;100002.06;6307180;20;2812789;-46
2022/02/23 09:20:27;;;;;;;;;9.00;9.00;;;;;8.00;76.21;100005.38;6284028;20;2758643;-45
2022/02/23 09:22:57;;;;;;;;;13.00;10.60;;;;;7.81;77.98;100008.03;6308651;20;2778456;-46
2022/02/23 09:25:25;;;;;;;;;16.50;13.00;;;;;7.54;76.22;100016.34;6283419;20;2796521;-48
2022/02/23 09:27:53;;;;;;;;;14.00;10.00;;;;;8.19;75.32;100016.09;6284303;20;2788816;-46
2022/02/23 09:30:23;;;;;;;;;11.80;10.00;;;;;8.34;74.62;100020.72;6309052;20;2784681;-46
2022/02/23 09:32:53;;;;;;;;;14.33;12.67;;;;;8.91;72.86;100016.22;6284455;20;3524278;-47
2022/02/23 09:35:22;;;;;;;;;15.00;10.00;;;;;9.38;72.02;100012.97;6317253;20;2793070;-47
2022/02/23 09:37:53;;;;;;;;;14.60;13.00;;;;;9.66;71.35;100032.97;6344713;20;2793994;-50
2022/02/23 09:40:21;;;;;;;;;15.00;13.00;;;;;9.93;71.08;100027.13;6284199;20;2791929;-50
2022/02/23 09:42:50;;;;;;;;;9.00;9.00;;;;;9.77;70.24;100027.03;6289986;20;2746182;-47
2022/02/23 09:45:19;;;;;;;;;20.33;15.67;;;;;9.78;71.21;100018.06;6288370;20;3556863;-49
2022/02/23 09:47:50;;;;;;;;;11.20;8.40;;;;;9.60;71.17;100026.09;6345727;20;2760653;-48
2022/02/23 09:50:20;;;;;;;;;12.00;11.00;;;;;9.80;71.39;100038.47;6317763;20;3512094;-48
2022/02/23 09:52:52;;;;;;;;;14.33;12.67;;;;;9.89;70.97;100040.66;6319975;20;3527314;-51
2022/02/23 09:55:21;;;;;;;;;11.00;11.00;;;;;9.82;71.05;100039.28;6319737;20;2789866;-50
2022/02/23 09:57:49;;;;;;;;;16.00;11.33;;;;;10.32;69.96;100051.81;6290459;20;3522115;-46
2022/02/23 10:00:18;;;;;;;;;18.33;10.00;;;;;10.02;71.19;100048.06;6317402;20;3545016;-47
2022/02/23 10:02:48;;;;;;;;;10.80;10.00;;;;;9.64;72.25;100059.00;6344975;20;2778406;-45
2022/02/23 10:05:17;;;;;;;;;15.33;14.33;;;;;10.01;71.28;100049.88;6286510;20;2804509;-47
2022/02/23 10:07:45;;;;;;;;;12.00;10.00;;;;;9.96;72.32;100053.75;6319133;20;2784833;-46
2022/02/23 10:10:37;;;;;;;;;10.80;10.80;;;;;10.00;75.38;100050.81;6314334;20;2794085;-46
2022/02/23 10:13:08;;;;;;;;;11.00;11.00;;;;;10.02;71.78;100054.28;6291798;20;2813848;-46
2022/02/23 10:15:43;;;;;;;;;8.00;8.00;;;;;10.28;70.95;100052.91;6293785;20;2730508;-44
2022/02/23 10:18:20;;;;;;;;;9.00;7.00;;;;;10.27;70.89;100058.34;6321294;20;2746117;-46
2022/02/23 10:20:51;;;;;;;;;5.00;5.00;;;;;9.98;70.67;100063.47;6295550;20;2741908;-43
2022/02/23 10:23:23;;;;;;;;;8.00;7.00;;;;;10.18;69.41;100054.34;6322579;20;2754528;-48
2022/02/23 10:26:05;;;;;;;;;8.00;7.00;;;;;10.04;65.13;100052.41;6290171;20;2733579;-47
2022/02/23 10:28:35;;;;;;;;;5.00;3.50;;;;;10.81;62.11;100045.50;6321602;20;2744003;-44
2022/02/23 10:31:15;;;;;;;;;4.86;4.00;;;;;11.10;60.36;100059.97;6331522;20;1796595;-44
2022/02/23 10:33:44;;;;;;;;;22.67;14.67;;;;;11.07;58.66;100060.16;6318764;20;3555570;-45
2022/02/23 10:36:22;;;;;;;;;12.50;6.50;;;;;10.90;58.31;100053.06;6320083;20;2771235;-44
2022/02/23 10:39:50;;;;;;;;;7.50;5.00;;;;;10.65;59.19;100067.00;6288227;20;2750244;-48
2022/02/23 10:42:29;;;;;;;;;4.00;4.00;;;;;10.46;59.36;100047.50;6288195;20;2754421;-45
2022/02/23 10:45:00;;;;;;;;;7.00;5.00;;;;;10.16;60.04;100050.00;6291229;20;2754500;-49
2022/02/23 10:47:33;;;;;;;;;16.50;10.00;;;;;10.07;60.29;100046.00;6285844;20;2786711;-48
2022/02/23 10:50:24;;;;;;;;;5.00;4.00;;;;;10.07;60.37;100054.06;6312079;20;1804994;-44
2022/02/23 10:53:10;;;;;;;;;10.00;8.00;;;;;10.74;59.44;100054.84;6317189;20;2750254;-44
2022/02/23 10:56:29;;;;;;;;;9.00;4.00;;;;;10.52;57.97;100057.88;6283185;20;2760676;-47
2022/02/23 10:59:22;;;;;;;;;26.33;9.67;;;;;10.57;56.58;100053.13;6286660;20;3553425;-47
2022/02/23 11:01:56;;;;;;;;;26.67;14.00;;;;;10.97;56.09;100057.09;6312591;20;3574223;-48
2022/02/23 11:04:24;;;;;;;;;5.50;5.50;;;;;11.36;56.39;100065.66;6321043;20;2737778;-46
2022/02/23 11:06:54;;;;;;;;;4.00;3.00;;;;;11.15;55.72;100073.13;6288652;20;2754441;-48
2022/02/23 11:09:29;;;;;;;;;12.57;8.29;;;;;11.02;56.46;100066.75;6332593;20;1809094;-45
2022/02/23 11:11:57;;;;;;;;;12.00;8.00;;;;;10.98;56.41;100071.44;6318878;20;2778375;-44
2022/02/23 11:14:26;;;;;;;;;5.50;4.50;;;;;11.72;54.78;100080.56;6288838;20;2744119;-45
2022/02/23 11:16:55;;;;;;;;;27.33;11.67;;;;;10.98;53.96;100076.81;6286888;20;3559618;-48
2022/02/23 11:19:28;;;;;;;;;22.33;5.00;;;;;11.05;54.51;100082.69;6316590;20;2803428;-44
2022/02/23 11:21:57;;;;;;;;;5.00;4.00;;;;;10.94;55.37;100067.19;6319767;20;2756557;-44
2022/02/23 11:24:26;;;;;;;;;21.00;9.50;;;;;11.25;55.91;100084.22;6283280;20;2803399;-44
2022/02/23 11:27:00;;;;;;;;;6.00;4.00;;;;;11.14;53.84;100077.66;6285420;20;2748229;-44